createdAt,value
2023-03-25T00:03:46.986Z,99279.49
2023-03-25T00:07:14.215Z,99275.19
2023-03-25T00:10:45.106Z,99272.42
2023-03-25T00:14:17.548Z,99273.08
2023-03-25T00:17:47.241Z,99277.09
2023-03-25T00:21:15.254Z,99287.27
2023-03-25T00:24:43.416Z,99287.38
2023-03-25T00:28:15.561Z,99279.04
2023-03-25T00:31:43.717Z,99282.08
2023-03-25T00:35:21.681Z,99303.39
2023-03-25T00:38:51.743Z,99312.98
2023-03-25T00:42:27.605Z,99307.42
2023-03-25T00:45:58.549Z,99308.59
2023-03-25T00:49:25.709Z,99307.23
2023-03-25T00:52:53.672Z,99294.19
2023-03-25T00:56:21.042Z,99286.34
2023-03-25T00:59:49.899Z,99287.33
2023-03-25T01:03:19.628Z,99280.15
2023-03-25T01:06:52.239Z,99275.28
2023-03-25T01:10:19.589Z,99274.99
2023-03-25T01:13:46.994Z,99269.75
2023-03-25T01:17:15.170Z,99259.56
2023-03-25T01:20:44.186Z,99256.64
2023-03-25T01:24:14.331Z,99248.74
2023-03-25T01:27:44.640Z,99251.52
2023-03-25T01:31:18.231Z,99242.69
2023-03-25T01:34:48.561Z,99236.70
2023-03-25T01:38:17.805Z,99235.90
2023-03-25T01:41:55.800Z,99234.30
2023-03-25T01:45:37.723Z,99233.66
2023-03-25T01:49:11.618Z,99231.39
2023-03-25T01:52:52.560Z,99234.99
2023-03-25T01:56:26.099Z,99235.70
2023-03-25T01:59:53.951Z,99235.91
2023-03-25T02:03:24.094Z,99239.41
2023-03-25T02:06:55.058Z,99242.30
2023-03-25T02:10:23.472Z,99252.95
2023-03-25T02:13:52.978Z,99260.38
2023-03-25T02:17:29.992Z,99260.40
2023-03-25T02:21:27.041Z,99248.52
2023-03-25T02:25:21.128Z,99241.60
2023-03-25T02:28:56.854Z,99238.52
2023-03-25T02:32:44.620Z,99239.00
2023-03-25T02:36:41.715Z,99235.09
2023-03-25T02:40:12.116Z,99228.99
2023-03-25T02:43:45.914Z,99226.17
2023-03-25T02:47:18.824Z,99222.17
2023-03-25T02:50:50.430Z,99215.42
2023-03-25T02:54:20.960Z,99205.69
2023-03-25T02:57:53.300Z,99205.34
2023-03-25T03:01:23.193Z,99205.99
2023-03-25T03:04:55.337Z,99213.25
2023-03-25T03:08:37.488Z,99209.92
2023-03-25T03:12:18.085Z,99205.35
2023-03-25T03:15:55.555Z,99195.19
2023-03-25T03:19:38.331Z,99195.11
2023-03-25T03:23:15.160Z,99196.13
2023-03-25T03:26:49.998Z,99199.76
2023-03-25T03:30:27.625Z,99198.94
2023-03-25T03:33:58.810Z,99197.75
2023-03-25T03:37:31.710Z,99205.58
2023-03-25T03:41:04.860Z,99212.50
2023-03-25T03:44:36.238Z,99213.16
2023-03-25T03:48:07.558Z,99213.89
2023-03-25T03:51:38.535Z,99216.96
2023-03-25T03:55:11.007Z,99225.67
2023-03-25T03:58:43.279Z,99231.38
2023-03-25T04:02:19.371Z,99235.15
2023-03-25T04:05:56.214Z,99238.50
2023-03-25T04:09:29.406Z,99237.25
2023-03-25T04:13:00.000Z,99239.16
2023-03-25T04:16:28.832Z,99245.40
2023-03-25T04:19:56.018Z,99241.94
2023-03-25T04:23:23.166Z,99249.96
2023-03-25T04:26:50.080Z,99259.27
2023-03-25T04:30:19.372Z,99262.67
2023-03-25T04:33:50.996Z,99261.17
2023-03-25T04:37:17.539Z,99260.55
2023-03-25T04:40:46.995Z,99261.45
2023-03-25T04:44:14.340Z,99258.62
2023-03-25T04:47:45.117Z,99267.19
2023-03-25T04:51:14.226Z,99266.27
2023-03-25T04:54:41.295Z,99263.41
2023-03-25T04:58:11.602Z,99251.41
2023-03-25T05:01:42.550Z,99245.92
2023-03-25T05:05:10.734Z,99249.20
2023-03-25T05:08:38.495Z,99252.79
2023-03-25T05:12:05.088Z,99257.98
2023-03-25T05:15:35.814Z,99252.06
2023-03-25T05:19:03.820Z,99252.56
2023-03-25T05:22:31.162Z,99246.33
2023-03-25T05:25:58.037Z,99244.77
2023-03-25T05:29:24.536Z,99245.61
2023-03-25T05:32:56.722Z,99246.08
2023-03-25T05:36:25.265Z,99246.65
2023-03-25T05:39:52.882Z,99249.34
2023-03-25T05:43:23.229Z,99253.37
2023-03-25T05:46:52.786Z,99256.78
2023-03-25T05:50:20.415Z,99261.68
2023-03-25T05:53:50.208Z,99264.77
2023-03-25T05:57:17.091Z,99274.08
2023-03-25T06:00:44.442Z,99273.05
2023-03-25T06:04:13.321Z,99274.73
2023-03-25T06:07:43.046Z,99281.58
2023-03-25T06:11:10.639Z,99279.17
2023-03-25T06:14:37.931Z,99276.38
2023-03-25T06:18:05.882Z,99269.96
2023-03-25T06:21:35.202Z,99268.58
2023-03-25T06:25:04.141Z,99267.77
2023-03-25T06:28:31.380Z,99264.87
2023-03-25T06:31:59.852Z,99260.13
2023-03-25T06:35:26.627Z,99255.60
2023-03-25T06:38:53.943Z,99253.54
2023-03-25T06:42:22.076Z,99255.77
2023-03-25T06:45:59.911Z,99253.19
2023-03-25T06:49:51.990Z,99252.41
2023-03-25T06:53:18.703Z,99252.71
2023-03-25T06:56:45.649Z,99251.96
2023-03-25T07:00:15.344Z,99256.29
2023-03-25T07:03:42.799Z,99253.11
2023-03-25T07:07:09.805Z,99252.86
2023-03-25T07:10:37.904Z,99249.77
2023-03-25T07:14:06.087Z,99246.08
2023-03-25T07:17:32.958Z,99248.18
2023-03-25T07:21:00.273Z,99243.46
2023-03-25T07:24:26.968Z,99245.14
2023-03-25T07:27:53.668Z,99248.98
2023-03-25T07:31:21.157Z,99252.95
2023-03-25T07:34:48.479Z,99261.14
2023-03-25T07:38:15.565Z,99260.66
2023-03-25T07:41:43.537Z,99261.54
2023-03-25T07:45:20.874Z,99260.95
2023-03-25T07:48:48.705Z,99257.98
2023-03-25T07:52:15.284Z,99252.13
2023-03-25T07:55:42.556Z,99244.77
2023-03-25T07:59:09.875Z,99240.01
2023-03-25T08:02:36.925Z,99240.90
2023-03-25T08:06:04.952Z,99252.88
2023-03-25T08:09:32.217Z,99258.48
2023-03-25T08:12:59.766Z,99255.80
2023-03-25T08:16:26.872Z,99248.35
2023-03-25T08:19:58.301Z,99244.39
2023-03-25T08:23:27.227Z,99240.43
2023-03-25T08:26:56.543Z,99243.78
2023-03-25T08:30:26.137Z,99247.94
2023-03-25T08:34:05.489Z,99249.14
2023-03-25T08:37:40.080Z,99245.08
2023-03-25T08:41:08.582Z,99240.09
2023-03-25T08:44:37.246Z,99239.76
2023-03-25T08:48:04.677Z,99237.23
2023-03-25T08:51:35.510Z,99235.07
2023-03-25T08:55:02.985Z,99228.95
2023-03-25T08:58:33.854Z,99233.06
2023-03-25T09:02:02.772Z,99230.80
2023-03-25T09:05:30.279Z,99232.31
2023-03-25T09:08:57.512Z,99235.13
2023-03-25T09:12:24.806Z,99239.30
2023-03-25T09:15:53.283Z,99239.34
2023-03-25T09:19:21.628Z,99239.77
2023-03-25T09:22:49.412Z,99241.16
2023-03-25T09:26:16.364Z,99241.58
2023-03-25T09:29:43.113Z,99240.84
2023-03-25T09:33:16.506Z,99241.40
2023-03-25T09:36:45.983Z,99242.63
2023-03-25T09:40:16.669Z,99241.99
2023-03-25T09:43:59.860Z,99247.46
2023-03-25T09:47:28.568Z,99245.73
2023-03-25T09:50:55.071Z,99246.69
2023-03-25T09:54:27.176Z,99251.82
2023-03-25T09:58:03.923Z,99245.41
2023-03-25T10:01:41.895Z,99244.67
2023-03-25T10:05:49.316Z,99246.64
2023-03-25T10:09:40.232Z,99249.10
2023-03-25T10:13:15.231Z,99246.84
2023-03-25T10:16:56.512Z,99248.86
2023-03-25T10:20:31.031Z,99251.79
2023-03-25T10:24:07.701Z,99252.42
2023-03-25T10:27:40.020Z,99253.02
2023-03-25T10:31:15.662Z,99255.48
2023-03-25T10:34:47.834Z,99250.04
2023-03-25T10:38:20.989Z,99247.27
2023-03-25T10:41:48.131Z,99238.88
2023-03-25T10:45:18.411Z,99230.60
2023-03-25T10:48:47.467Z,99229.66
2023-03-25T10:52:16.321Z,99222.20
2023-03-25T10:55:46.455Z,99221.88
2023-03-25T10:59:21.476Z,99223.19
2023-03-25T11:02:52.037Z,99222.77
2023-03-25T11:06:26.969Z,99214.84
2023-03-25T11:09:54.264Z,99210.60
2023-03-25T11:13:58.573Z,99206.77
2023-03-25T11:17:43.506Z,99202.34
2023-03-25T11:21:13.973Z,99198.77
2023-03-25T11:24:46.138Z,99193.23
2023-03-25T11:28:17.946Z,99184.92
2023-03-25T11:31:57.963Z,99185.90
2023-03-25T11:35:31.964Z,99176.67
2023-03-25T11:39:13.971Z,99178.80
2023-03-25T11:42:49.903Z,99175.06
2023-03-25T11:46:20.641Z,99169.80
2023-03-25T11:49:51.436Z,99160.43
2023-03-25T11:53:20.211Z,99154.77
2023-03-25T11:56:50.267Z,99153.54
2023-03-25T12:00:38.489Z,99143.69
2023-03-25T12:04:18.760Z,99138.94
2023-03-25T12:07:47.665Z,99136.35
2023-03-25T12:11:19.942Z,99126.19
2023-03-25T12:14:57.770Z,99127.70
2023-03-25T12:18:42.024Z,99122.91
2023-03-25T12:22:19.353Z,99113.44
2023-03-25T12:25:55.680Z,99118.87
2023-03-25T12:29:37.791Z,99120.02
2023-03-25T12:33:14.671Z,99123.71
2023-03-25T12:36:51.710Z,99122.30
2023-03-25T12:40:46.569Z,99129.96
2023-03-25T12:44:31.145Z,99129.89
2023-03-25T12:48:03.554Z,99139.13
2023-03-25T12:51:43.595Z,99144.14
2023-03-25T12:55:32.901Z,99142.49
2023-03-25T12:59:21.760Z,99122.62
2023-03-25T13:03:18.083Z,99128.31
2023-03-25T13:06:49.371Z,99130.15
2023-03-25T13:10:21.065Z,99129.45
2023-03-25T13:13:51.026Z,99131.13
2023-03-25T13:17:26.579Z,99128.55
2023-03-25T13:21:11.605Z,99127.23
2023-03-25T13:24:45.972Z,99124.47
2023-03-25T13:28:19.066Z,99120.89
2023-03-25T13:31:48.891Z,99123.52
2023-03-25T13:35:20.903Z,99114.83
2023-03-25T13:38:55.733Z,99111.77
2023-03-25T13:42:25.961Z,99095.89
2023-03-25T13:45:58.168Z,99090.92
2023-03-25T13:49:30.545Z,99087.39
2023-03-25T13:53:04.701Z,99087.86
2023-03-25T13:56:59.134Z,99080.42
2023-03-25T14:00:53.091Z,99078.66
2023-03-25T14:05:00.674Z,99075.98
2023-03-25T14:08:49.762Z,99077.19
2023-03-25T14:12:19.943Z,99079.03
2023-03-25T14:15:53.965Z,99083.09
2023-03-25T14:19:32.081Z,99084.80
2023-03-25T14:23:04.601Z,99088.67
2023-03-25T14:26:33.344Z,99090.69
2023-03-25T14:30:03.106Z,99096.08
2023-03-25T14:33:51.047Z,99094.85
2023-03-25T14:37:36.211Z,99098.32
2023-03-25T14:41:04.039Z,99102.11
2023-03-25T14:44:33.186Z,99097.79
2023-03-25T14:48:03.493Z,99099.45
2023-03-25T14:51:51.758Z,99096.86
2023-03-25T14:55:22.845Z,99093.77
2023-03-25T14:58:55.051Z,99095.41
2023-03-25T15:02:28.988Z,99091.95
2023-03-25T15:06:01.102Z,99091.36
2023-03-25T15:09:30.115Z,99093.54
2023-03-25T15:13:02.240Z,99091.57
2023-03-25T15:16:37.165Z,99091.41
2023-03-25T15:20:31.953Z,99090.54
2023-03-25T15:24:06.625Z,99091.48
2023-03-25T15:27:56.079Z,99085.63
2023-03-25T15:31:41.245Z,99083.86
2023-03-25T15:35:35.131Z,99083.39
2023-03-25T15:39:17.601Z,99082.86
2023-03-25T15:43:01.737Z,99084.58
2023-03-25T15:47:22.581Z,99082.10
2023-03-25T15:51:07.004Z,99078.90
2023-03-25T15:54:42.174Z,99088.89
2023-03-25T15:58:23.409Z,99091.10
2023-03-25T16:01:53.814Z,99093.36
2023-03-25T16:05:23.280Z,99094.87
2023-03-25T16:08:52.196Z,99098.68
2023-03-25T16:12:24.783Z,99094.26
2023-03-25T16:15:53.418Z,99102.18
2023-03-25T16:19:24.168Z,99104.42
2023-03-25T16:22:54.343Z,99101.91
2023-03-25T16:26:38.453Z,99102.32
2023-03-25T16:30:22.041Z,99102.10
2023-03-25T16:33:49.035Z,99104.95
2023-03-25T16:37:18.142Z,99109.45
2023-03-25T16:40:47.098Z,99106.48
2023-03-25T16:44:19.371Z,99110.33
2023-03-25T16:47:49.250Z,99109.98
2023-03-25T16:51:18.916Z,99115.84
2023-03-25T16:55:09.771Z,99118.66
2023-03-25T16:58:39.747Z,99122.00
2023-03-25T17:02:26.936Z,99130.13
2023-03-25T17:06:03.411Z,99131.00
2023-03-25T17:09:35.406Z,99135.95
2023-03-25T17:13:09.398Z,99137.61
2023-03-25T17:16:38.311Z,99144.71
2023-03-25T17:20:09.583Z,99146.97
2023-03-25T17:23:45.247Z,99157.98
2023-03-25T17:27:26.271Z,99161.81
2023-03-25T17:30:54.530Z,99165.25
2023-03-25T17:34:24.747Z,99170.22
2023-03-25T17:37:52.713Z,99182.65
2023-03-25T17:41:21.244Z,99206.29
2023-03-25T17:44:48.620Z,99208.80
2023-03-25T17:48:18.343Z,99208.77
2023-03-25T17:51:45.905Z,99190.68
2023-03-25T17:55:13.585Z,99185.13
2023-03-25T17:58:40.254Z,99192.70
2023-03-25T18:02:13.627Z,99193.94
2023-03-25T18:05:40.434Z,99193.02
2023-03-25T18:09:09.237Z,99190.39
2023-03-25T18:12:36.144Z,99190.60
2023-03-25T18:16:03.012Z,99189.65
2023-03-25T18:19:32.289Z,99191.64
2023-03-25T18:22:59.848Z,99193.14
2023-03-25T18:26:28.664Z,99196.02
2023-03-25T18:29:55.284Z,99197.37
2023-03-25T18:33:22.362Z,99199.20
2023-03-25T18:36:49.738Z,99197.96
2023-03-25T18:40:24.558Z,99197.55
2023-03-25T18:43:51.596Z,99194.02
2023-03-25T18:47:18.773Z,99190.84
2023-03-25T18:50:52.675Z,99191.05
2023-03-25T18:54:20.629Z,99190.52
2023-03-25T18:57:47.349Z,99188.50
2023-03-25T19:01:18.894Z,99183.77
2023-03-25T19:04:59.504Z,99176.66
2023-03-25T19:08:28.970Z,99170.28
2023-03-25T19:11:55.578Z,99166.71
2023-03-25T19:15:48.749Z,99165.42
2023-03-25T19:19:15.656Z,99160.84
2023-03-25T19:22:43.559Z,99161.27
2023-03-25T19:26:10.235Z,99161.87
2023-03-25T19:29:38.215Z,99170.22
2023-03-25T19:33:05.248Z,99165.80
2023-03-25T19:36:40.193Z,99157.55
2023-03-25T19:40:17.546Z,99149.83
2023-03-25T19:43:45.302Z,99148.43
2023-03-25T19:47:13.912Z,99144.46
2023-03-25T19:50:44.735Z,99142.18
2023-03-25T19:54:15.784Z,99139.33
2023-03-25T19:57:45.353Z,99137.00
2023-03-25T20:01:14.039Z,99138.94
2023-03-25T20:04:50.354Z,99135.66
2023-03-25T20:08:22.411Z,99142.89
2023-03-25T20:11:49.649Z,99142.36
2023-03-25T20:15:18.090Z,99144.53
2023-03-25T20:18:48.860Z,99148.89
2023-03-25T20:22:24.890Z,99151.95
2023-03-25T20:25:54.134Z,99151.23
2023-03-25T20:29:22.665Z,99154.20
2023-03-25T20:32:50.545Z,99151.67
2023-03-25T20:36:22.587Z,99155.78
2023-03-25T20:39:51.872Z,99158.06
2023-03-25T20:43:20.432Z,99153.27
2023-03-25T20:46:49.957Z,99151.68
2023-03-25T20:50:21.142Z,99148.94
2023-03-25T20:53:50.644Z,99144.55
2023-03-25T20:57:18.028Z,99146.71
2023-03-25T21:00:47.291Z,99157.48
2023-03-25T21:04:15.812Z,99155.23
2023-03-25T21:07:42.902Z,99153.88
2023-03-25T21:11:10.538Z,99151.02
2023-03-25T21:14:41.727Z,99146.65
2023-03-25T21:18:11.911Z,99147.47
2023-03-25T21:21:42.146Z,99147.90
2023-03-25T21:25:11.165Z,99148.60
2023-03-25T21:28:42.961Z,99145.58
2023-03-25T21:32:14.356Z,99143.80
2023-03-25T21:35:41.869Z,99143.47
2023-03-25T21:39:20.985Z,99144.27
2023-03-25T21:42:48.993Z,99132.49
2023-03-25T21:46:18.428Z,99127.36
2023-03-25T21:49:49.557Z,99126.98
2023-03-25T21:53:18.961Z,99124.42
2023-03-25T21:56:47.254Z,99122.70
2023-03-25T22:00:20.243Z,99124.38
2023-03-25T22:03:50.237Z,99127.45
2023-03-25T22:07:20.945Z,99124.75
2023-03-25T22:10:48.210Z,99124.82
2023-03-25T22:14:15.039Z,99122.92
2023-03-25T22:17:43.805Z,99118.73
2023-03-25T22:21:15.052Z,99117.01
2023-03-25T22:24:45.077Z,99110.99
2023-03-25T22:28:14.222Z,99113.57
2023-03-25T22:31:45.179Z,99113.23
2023-03-25T22:35:17.563Z,99108.90
2023-03-25T22:38:46.339Z,99109.23
2023-03-25T22:42:15.108Z,99113.31
2023-03-25T22:45:43.147Z,99109.23
2023-03-25T22:49:11.558Z,99109.91
2023-03-25T22:52:40.850Z,99107.60
2023-03-25T22:56:13.341Z,99103.65
2023-03-25T22:59:41.324Z,99098.76
2023-03-25T23:03:11.475Z,99104.15
2023-03-25T23:06:39.094Z,99103.83
2023-03-25T23:10:10.158Z,99106.58
2023-03-25T23:13:37.655Z,99107.52
2023-03-25T23:17:04.981Z,99106.94
2023-03-25T23:20:31.990Z,99105.53
2023-03-25T23:24:01.807Z,99106.05
2023-03-25T23:27:34.121Z,99106.52
2023-03-25T23:31:03.905Z,99105.04
2023-03-25T23:34:32.081Z,99107.48
2023-03-25T23:37:59.746Z,99101.95
2023-03-25T23:41:27.410Z,99100.36
2023-03-25T23:44:54.942Z,99089.36
2023-03-25T23:48:23.053Z,99086.98
2023-03-25T23:51:51.409Z,99085.13
2023-03-25T23:55:18.801Z,99090.39
2023-03-25T23:58:45.550Z,99085.48
